Airfield :
LOGIN :

Register | Disclaimer

   EN    FR    IT 

 










Legend :    VFR   Marginal VFR   IFR   Intensive IFR   Very Intensive IFR
Visi :
Ceiling :
>= 8 km
>= 3000ft
5 to 8 km
1000 to 3000 ft
1500m to 5 km
500 to 1000 ft
800 to 1500m
200 to 500 ft
< 800m
< 200 ft
Symbols :   Thunderstorms  Fog  Heavy snow  Heavy precipitations  Wind > 20 kt
SIGMETs :     Misc.  Thunderstorms  Icing  Turbulence  Mountain Waves  Volcanic Ashes







- Airport Elevation : 274 ft
- IATA code : PUY


LDPL - Pula

CURRENT METAR :
  • 171430Z 26007KT 220V310 CAVOK 30/16 Q1013 NOSIG

EXPIRED METARs :
  • 171400Z 26010KT 220V280 CAVOK 30/16 Q1014 NOSIG
  • 171330Z 25008KT 210V280 9999 FEW030 30/14 Q1014 NOSIG
  • 171300Z 25010KT 9999 FEW030 30/15 Q1014 NOSIG
  • 171230Z 23011KT 9999 FEW030 30/15 Q1014 NOSIG
  • 171200Z 26009KT 220V290 9999 FEW030 30/16 Q1014 NOSIG

TAF TAF LDPL
Valid from the 17 at 12:00 until the 18 at 12:00 UTC


171125Z 1712/1812 27010KT CAVOK TX31/1811Z TN21/1803Z
PROB30
TEMPO 1712/1714 FEW050CB
BECMG 1717/1719 VRB02KT
No reported NOTAMs for that airfield.



MET'MAP, your aeronautical weather chart ! - Copyright ORBIFLY December 2007 - Disclaimer

ORBIFLY MET'MAP TEAM :

Programming & Development : Alexandra Zaïnal
Concept & Development : Baudouin d'Aumeries
Co-Development & Prog : Marc-Olivier Méhu
Technical & hardware support : Manuel Goepfert

Contact : metmap@orbifly.com




SOURCES & CREDITS :

   NOAA